sensor_id;sensor_type;location;lat;lon;timestamp;P1;durP1;ratioP1;P2;durP2;ratioP2
50012;SDS011;35901;48.694;9.476;2022-12-29T00:02:10;12.47;;;10.13;;
50012;SDS011;35901;48.694;9.476;2022-12-29T00:04:36;11.90;;;9.60;;
50012;SDS011;35901;48.694;9.476;2022-12-29T00:07:02;14.23;;;10.07;;
50012;SDS011;35901;48.694;9.476;2022-12-29T00:09:29;10.67;;;8.70;;
50012;SDS011;35901;48.694;9.476;2022-12-29T00:11:56;10.87;;;8.97;;
50012;SDS011;35901;48.694;9.476;2022-12-29T00:14:22;11.70;;;9.73;;
50012;SDS011;35901;48.694;9.476;2022-12-29T00:17:06;12.67;;;8.83;;
50012;SDS011;35901;48.694;9.476;2022-12-29T00:19:32;9.67;;;7.63;;
50012;SDS011;35901;48.694;9.476;2022-12-29T00:22:16;8.67;;;6.43;;
50012;SDS011;35901;48.694;9.476;2022-12-29T00:25:00;7.87;;;5.90;;
50012;SDS011;35901;48.694;9.476;2022-12-29T00:27:45;6.47;;;5.70;;
50012;SDS011;35901;48.694;9.476;2022-12-29T00:30:30;6.03;;;5.43;;
50012;SDS011;35901;48.694;9.476;2022-12-29T00:33:16;8.00;;;5.93;;
50012;SDS011;35901;48.694;9.476;2022-12-29T00:36:10;6.50;;;5.73;;
50012;SDS011;35901;48.694;9.476;2022-12-29T00:38:43;7.93;;;6.83;;
50012;SDS011;35901;48.694;9.476;2022-12-29T00:41:31;9.00;;;7.13;;
50012;SDS011;35901;48.694;9.476;2022-12-29T00:44:15;7.23;;;6.50;;
50012;SDS011;35901;48.694;9.476;2022-12-29T00:46:43;8.30;;;6.77;;
50012;SDS011;35901;48.694;9.476;2022-12-29T00:49:10;7.53;;;6.83;;
50012;SDS011;35901;48.694;9.476;2022-12-29T00:51:55;10.07;;;7.67;;
50012;SDS011;35901;48.694;9.476;2022-12-29T00:54:22;9.47;;;8.00;;
50012;SDS011;35901;48.694;9.476;2022-12-29T00:56:49;10.10;;;7.97;;
50012;SDS011;35901;48.694;9.476;2022-12-29T00:59:16;9.80;;;7.57;;
50012;SDS011;35901;48.694;9.476;2022-12-29T01:01:44;11.33;;;9.07;;
50012;SDS011;35901;48.694;9.476;2022-12-29T01:04:11;11.73;;;9.13;;
50012;SDS011;35901;48.694;9.476;2022-12-29T01:06:37;10.87;;;8.30;;
50012;SDS011;35901;48.694;9.476;2022-12-29T01:09:05;9.60;;;8.33;;
50012;SDS011;35901;48.694;9.476;2022-12-29T01:11:49;10.40;;;8.40;;
50012;SDS011;35901;48.694;9.476;2022-12-29T01:14:15;9.77;;;8.07;;
50012;SDS011;35901;48.694;9.476;2022-12-29T01:16:42;10.93;;;7.97;;
50012;SDS011;35901;48.694;9.476;2022-12-29T01:19:08;10.50;;;7.47;;
50012;SDS011;35901;48.694;9.476;2022-12-29T01:21:34;9.83;;;7.90;;
50012;SDS011;35901;48.694;9.476;2022-12-29T01:23:59;11.63;;;8.57;;
50012;SDS011;35901;48.694;9.476;2022-12-29T01:26:25;12.17;;;9.57;;
50012;SDS011;35901;48.694;9.476;2022-12-29T01:28:51;12.33;;;8.50;;
50012;SDS011;35901;48.694;9.476;2022-12-29T01:31:17;10.57;;;8.43;;
50012;SDS011;35901;48.694;9.476;2022-12-29T01:33:43;9.37;;;7.63;;
50012;SDS011;35901;48.694;9.476;2022-12-29T01:36:10;8.13;;;7.10;;
50012;SDS011;35901;48.694;9.476;2022-12-29T01:38:38;8.30;;;7.40;;
50012;SDS011;35901;48.694;9.476;2022-12-29T01:41:04;9.17;;;6.63;;
50012;SDS011;35901;48.694;9.476;2022-12-29T01:43:41;9.60;;;6.70;;
50012;SDS011;35901;48.694;9.476;2022-12-29T01:46:22;8.47;;;6.00;;
50012;SDS011;35901;48.694;9.476;2022-12-29T01:49:37;8.03;;;6.00;;
50012;SDS011;35901;48.694;9.476;2022-12-29T01:51:50;8.50;;;6.17;;
50012;SDS011;35901;48.694;9.476;2022-12-29T01:56:53;6.03;;;5.40;;
50012;SDS011;35901;48.694;9.476;2022-12-29T01:59:23;6.67;;;5.97;;
50012;SDS011;35901;48.694;9.476;2022-12-29T02:01:54;7.80;;;5.53;;
50012;SDS011;35901;48.694;9.476;2022-12-29T02:04:20;7.30;;;6.23;;
50012;SDS011;35901;48.694;9.476;2022-12-29T02:07:00;6.93;;;6.17;;
50012;SDS011;35901;48.694;9.476;2022-12-29T02:09:29;7.90;;;6.23;;
50012;SDS011;35901;48.694;9.476;2022-12-29T02:11:56;6.77;;;6.07;;
50012;SDS011;35901;48.694;9.476;2022-12-29T02:14:23;6.60;;;5.47;;
50012;SDS011;35901;48.694;9.476;2022-12-29T02:22:05;7.57;;;6.80;;
50012;SDS011;35901;48.694;9.476;2022-12-29T02:30:43;7.60;;;6.40;;
50012;SDS011;35901;48.694;9.476;2022-12-29T02:33:23;7.47;;;6.37;;
50012;SDS011;35901;48.694;9.476;2022-12-29T02:36:14;7.13;;;6.30;;
50012;SDS011;35901;48.694;9.476;2022-12-29T02:39:15;7.40;;;6.13;;
50012;SDS011;35901;48.694;9.476;2022-12-29T02:47:16;7.13;;;5.40;;
50012;SDS011;35901;48.694;9.476;2022-12-29T02:50:20;5.53;;;5.00;;
50012;SDS011;35901;48.694;9.476;2022-12-29T02:52:57;5.60;;;5.00;;
50012;SDS011;35901;48.694;9.476;2022-12-29T03:00:20;4.80;;;4.30;;
50012;SDS011;35901;48.694;9.476;2022-12-29T03:11:00;4.57;;;2.60;;
50012;SDS011;35901;48.694;9.476;2022-12-29T03:13:39;4.50;;;3.90;;
50012;SDS011;35901;48.694;9.476;2022-12-29T03:19:20;4.23;;;3.83;;
50012;SDS011;35901;48.694;9.476;2022-12-29T03:24:52;4.53;;;3.00;;
50012;SDS011;35901;48.694;9.476;2022-12-29T03:28:06;2.40;;;2.20;;
50012;SDS011;35901;48.694;9.476;2022-12-29T03:30:13;2.73;;;2.43;;
50012;SDS011;35901;48.694;9.476;2022-12-29T03:32:50;5.20;;;3.30;;
50012;SDS011;35901;48.694;9.476;2022-12-29T03:35:23;3.47;;;2.70;;
50012;SDS011;35901;48.694;9.476;2022-12-29T03:38:02;3.00;;;2.70;;
50012;SDS011;35901;48.694;9.476;2022-12-29T03:40:36;4.77;;;2.70;;
50012;SDS011;35901;48.694;9.476;2022-12-29T03:43:05;4.23;;;2.37;;
50012;SDS011;35901;48.694;9.476;2022-12-29T03:45:33;2.90;;;2.60;;
50012;SDS011;35901;48.694;9.476;2022-12-29T03:47:59;2.73;;;2.30;;
50012;SDS011;35901;48.694;9.476;2022-12-29T03:50:26;2.40;;;2.20;;
50012;SDS011;35901;48.694;9.476;2022-12-29T03:52:52;1.93;;;1.70;;
50012;SDS011;35901;48.694;9.476;2022-12-29T03:55:17;1.70;;;1.60;;
50012;SDS011;35901;48.694;9.476;2022-12-29T03:57:43;3.93;;;1.67;;
50012;SDS011;35901;48.694;9.476;2022-12-29T04:00:13;2.37;;;1.47;;
50012;SDS011;35901;48.694;9.476;2022-12-29T04:02:47;1.50;;;1.40;;
50012;SDS011;35901;48.694;9.476;2022-12-29T04:05:18;1.87;;;1.60;;
50012;SDS011;35901;48.694;9.476;2022-12-29T04:07:44;1.53;;;1.40;;
50012;SDS011;35901;48.694;9.476;2022-12-29T04:10:10;1.90;;;1.30;;
50012;SDS011;35901;48.694;9.476;2022-12-29T04:12:37;1.60;;;1.50;;
50012;SDS011;35901;48.694;9.476;2022-12-29T04:15:03;4.00;;;1.60;;
50012;SDS011;35901;48.694;9.476;2022-12-29T04:17:29;1.37;;;1.27;;
50012;SDS011;35901;48.694;9.476;2022-12-29T04:19:55;2.17;;;1.50;;
50012;SDS011;35901;48.694;9.476;2022-12-29T04:22:41;1.97;;;1.30;;
50012;SDS011;35901;48.694;9.476;2022-12-29T04:25:07;1.90;;;1.27;;
50012;SDS011;35901;48.694;9.476;2022-12-29T04:27:33;1.70;;;1.27;;
50012;SDS011;35901;48.694;9.476;2022-12-29T04:30:17;1.40;;;1.30;;
50012;SDS011;35901;48.694;9.476;2022-12-29T04:33:18;4.47;;;1.73;;
50012;SDS011;35901;48.694;9.476;2022-12-29T04:35:45;2.07;;;1.17;;
50012;SDS011;35901;48.694;9.476;2022-12-29T04:38:12;3.27;;;1.30;;
50012;SDS011;35901;48.694;9.476;2022-12-29T04:40:40;1.63;;;1.27;;
50012;SDS011;35901;48.694;9.476;2022-12-29T04:43:08;1.30;;;1.20;;
50012;SDS011;35901;48.694;9.476;2022-12-29T04:45:45;2.47;;;1.13;;
50012;SDS011;35901;48.694;9.476;2022-12-29T04:48:23;2.37;;;1.30;;
50012;SDS011;35901;48.694;9.476;2022-12-29T04:51:04;1.60;;;1.50;;
50012;SDS011;35901;48.694;9.476;2022-12-29T04:53:36;2.30;;;1.47;;
50012;SDS011;35901;48.694;9.476;2022-12-29T04:56:02;2.37;;;1.37;;
50012;SDS011;35901;48.694;9.476;2022-12-29T04:58:28;1.93;;;1.40;;
50012;SDS011;35901;48.694;9.476;2022-12-29T05:00:54;1.80;;;1.20;;
50012;SDS011;35901;48.694;9.476;2022-12-29T05:03:22;1.87;;;1.50;;
50012;SDS011;35901;48.694;9.476;2022-12-29T05:05:48;1.40;;;1.20;;
50012;SDS011;35901;48.694;9.476;2022-12-29T05:08:14;2.07;;;1.10;;
50012;SDS011;35901;48.694;9.476;2022-12-29T05:10:43;1.50;;;1.40;;
50012;SDS011;35901;48.694;9.476;2022-12-29T05:13:11;2.27;;;1.17;;
50012;SDS011;35901;48.694;9.476;2022-12-29T05:15:37;3.07;;;1.30;;
50012;SDS011;35901;48.694;9.476;2022-12-29T05:18:03;2.03;;;1.40;;
50012;SDS011;35901;48.694;9.476;2022-12-29T05:20:29;1.90;;;1.30;;
50012;SDS011;35901;48.694;9.476;2022-12-29T05:22:56;2.80;;;1.70;;
50012;SDS011;35901;48.694;9.476;2022-12-29T05:25:22;1.70;;;1.40;;
50012;SDS011;35901;48.694;9.476;2022-12-29T05:27:57;1.20;;;1.10;;
50012;SDS011;35901;48.694;9.476;2022-12-29T05:30:37;1.50;;;1.40;;
50012;SDS011;35901;48.694;9.476;2022-12-29T05:33:02;1.80;;;1.33;;
50012;SDS011;35901;48.694;9.476;2022-12-29T05:35:28;1.33;;;1.23;;
50012;SDS011;35901;48.694;9.476;2022-12-29T05:37:54;1.53;;;1.33;;
50012;SDS011;35901;48.694;9.476;2022-12-29T05:40:20;2.10;;;1.30;;
50012;SDS011;35901;48.694;9.476;2022-12-29T05:42:47;1.50;;;1.40;;
50012;SDS011;35901;48.694;9.476;2022-12-29T05:45:31;1.50;;;1.40;;
50012;SDS011;35901;48.694;9.476;2022-12-29T05:48:16;4.70;;;1.37;;
50012;SDS011;35901;48.694;9.476;2022-12-29T05:51:03;2.67;;;1.50;;
50012;SDS011;35901;48.694;9.476;2022-12-29T05:53:39;1.87;;;1.50;;
50012;SDS011;35901;48.694;9.476;2022-12-29T05:56:05;4.63;;;1.67;;
50012;SDS011;35901;48.694;9.476;2022-12-29T05:58:31;1.50;;;1.40;;
50012;SDS011;35901;48.694;9.476;2022-12-29T06:00:56;2.03;;;1.50;;
50012;SDS011;35901;48.694;9.476;2022-12-29T06:03:22;1.83;;;1.47;;
50012;SDS011;35901;48.694;9.476;2022-12-29T06:05:48;2.60;;;1.60;;
50012;SDS011;35901;48.694;9.476;2022-12-29T06:08:15;2.17;;;1.50;;
50012;SDS011;35901;48.694;9.476;2022-12-29T06:10:41;2.03;;;1.60;;
50012;SDS011;35901;48.694;9.476;2022-12-29T06:13:07;2.80;;;1.60;;
50012;SDS011;35901;48.694;9.476;2022-12-29T06:15:39;1.87;;;1.43;;
50012;SDS011;35901;48.694;9.476;2022-12-29T06:18:07;1.97;;;1.80;;
50012;SDS011;35901;48.694;9.476;2022-12-29T06:20:33;2.20;;;1.43;;
50012;SDS011;35901;48.694;9.476;2022-12-29T06:23:01;2.10;;;1.80;;
50012;SDS011;35901;48.694;9.476;2022-12-29T06:25:28;1.80;;;1.53;;
50012;SDS011;35901;48.694;9.476;2022-12-29T06:27:57;2.57;;;1.70;;
50012;SDS011;35901;48.694;9.476;2022-12-29T06:30:23;3.30;;;2.50;;
50012;SDS011;35901;48.694;9.476;2022-12-29T06:32:49;3.50;;;3.00;;
50012;SDS011;35901;48.694;9.476;2022-12-29T06:35:15;5.30;;;4.30;;
50012;SDS011;35901;48.694;9.476;2022-12-29T06:37:46;4.10;;;2.87;;
50012;SDS011;35901;48.694;9.476;2022-12-29T06:40:12;2.00;;;1.70;;
50012;SDS011;35901;48.694;9.476;2022-12-29T06:42:57;1.83;;;1.60;;
50012;SDS011;35901;48.694;9.476;2022-12-29T06:45:33;1.67;;;1.50;;
50012;SDS011;35901;48.694;9.476;2022-12-29T06:47:58;2.60;;;1.43;;
50012;SDS011;35901;48.694;9.476;2022-12-29T06:50:24;1.40;;;1.30;;
50012;SDS011;35901;48.694;9.476;2022-12-29T06:52:49;2.13;;;1.53;;
50012;SDS011;35901;48.694;9.476;2022-12-29T06:55:15;1.77;;;1.67;;
50012;SDS011;35901;48.694;9.476;2022-12-29T06:57:41;1.70;;;1.60;;
50012;SDS011;35901;48.694;9.476;2022-12-29T07:00:07;2.83;;;1.50;;
50012;SDS011;35901;48.694;9.476;2022-12-29T07:02:33;3.10;;;1.60;;
50012;SDS011;35901;48.694;9.476;2022-12-29T07:04:59;2.23;;;1.70;;
50012;SDS011;35901;48.694;9.476;2022-12-29T07:07:24;3.13;;;1.60;;
50012;SDS011;35901;48.694;9.476;2022-12-29T07:09:50;1.60;;;1.50;;
50012;SDS011;35901;48.694;9.476;2022-12-29T07:12:15;2.93;;;1.50;;
50012;SDS011;35901;48.694;9.476;2022-12-29T07:14:41;1.70;;;1.60;;
50012;SDS011;35901;48.694;9.476;2022-12-29T07:17:07;1.60;;;1.40;;
50012;SDS011;35901;48.694;9.476;2022-12-29T07:19:32;2.30;;;1.87;;
50012;SDS011;35901;48.694;9.476;2022-12-29T07:21:59;2.37;;;1.60;;
50012;SDS011;35901;48.694;9.476;2022-12-29T07:24:24;2.17;;;1.47;;
50012;SDS011;35901;48.694;9.476;2022-12-29T07:26:54;1.70;;;1.40;;
50012;SDS011;35901;48.694;9.476;2022-12-29T07:29:20;2.10;;;1.60;;
50012;SDS011;35901;48.694;9.476;2022-12-29T07:31:46;1.93;;;1.50;;
50012;SDS011;35901;48.694;9.476;2022-12-29T07:34:11;1.70;;;1.60;;
50012;SDS011;35901;48.694;9.476;2022-12-29T07:36:37;1.63;;;1.53;;
50012;SDS011;35901;48.694;9.476;2022-12-29T07:39:03;2.30;;;2.00;;
50012;SDS011;35901;48.694;9.476;2022-12-29T07:41:29;1.83;;;1.67;;
50012;SDS011;35901;48.694;9.476;2022-12-29T07:43:55;2.57;;;1.60;;
50012;SDS011;35901;48.694;9.476;2022-12-29T07:46:32;2.90;;;1.63;;
50012;SDS011;35901;48.694;9.476;2022-12-29T07:48:58;1.93;;;1.57;;
50012;SDS011;35901;48.694;9.476;2022-12-29T07:51:25;1.73;;;1.50;;
50012;SDS011;35901;48.694;9.476;2022-12-29T07:53:50;3.00;;;1.80;;
50012;SDS011;35901;48.694;9.476;2022-12-29T07:56:16;3.27;;;1.90;;
50012;SDS011;35901;48.694;9.476;2022-12-29T07:58:42;3.30;;;1.60;;
50012;SDS011;35901;48.694;9.476;2022-12-29T08:01:07;2.13;;;1.60;;
50012;SDS011;35901;48.694;9.476;2022-12-29T08:03:33;2.07;;;1.70;;
50012;SDS011;35901;48.694;9.476;2022-12-29T08:05:58;3.57;;;1.80;;
50012;SDS011;35901;48.694;9.476;2022-12-29T08:08:24;2.17;;;1.80;;
50012;SDS011;35901;48.694;9.476;2022-12-29T08:10:50;1.77;;;1.63;;
50012;SDS011;35901;48.694;9.476;2022-12-29T08:13:15;2.10;;;1.60;;
50012;SDS011;35901;48.694;9.476;2022-12-29T08:15:41;1.67;;;1.57;;
50012;SDS011;35901;48.694;9.476;2022-12-29T08:18:07;2.70;;;1.70;;
50012;SDS011;35901;48.694;9.476;2022-12-29T08:20:32;1.73;;;1.60;;
50012;SDS011;35901;48.694;9.476;2022-12-29T08:22:58;2.30;;;1.50;;
50012;SDS011;35901;48.694;9.476;2022-12-29T08:25:24;2.77;;;1.70;;
50012;SDS011;35901;48.694;9.476;2022-12-29T08:27:49;1.63;;;1.40;;
50012;SDS011;35901;48.694;9.476;2022-12-29T08:30:15;2.83;;;1.30;;
50012;SDS011;35901;48.694;9.476;2022-12-29T08:32:41;4.07;;;1.83;;
50012;SDS011;35901;48.694;9.476;2022-12-29T08:35:07;2.93;;;1.57;;
50012;SDS011;35901;48.694;9.476;2022-12-29T08:37:33;2.23;;;1.60;;
50012;SDS011;35901;48.694;9.476;2022-12-29T08:39:59;2.07;;;1.40;;
50012;SDS011;35901;48.694;9.476;2022-12-29T08:42:28;1.63;;;1.40;;
50012;SDS011;35901;48.694;9.476;2022-12-29T08:44:56;1.87;;;1.33;;
50012;SDS011;35901;48.694;9.476;2022-12-29T08:47:25;2.53;;;1.47;;
50012;SDS011;35901;48.694;9.476;2022-12-29T08:49:51;1.70;;;1.60;;
50012;SDS011;35901;48.694;9.476;2022-12-29T08:52:17;1.63;;;1.53;;
50012;SDS011;35901;48.694;9.476;2022-12-29T08:54:43;1.80;;;1.70;;
50012;SDS011;35901;48.694;9.476;2022-12-29T08:57:10;1.70;;;1.60;;
50012;SDS011;35901;48.694;9.476;2022-12-29T08:59:44;1.63;;;1.50;;
50012;SDS011;35901;48.694;9.476;2022-12-29T09:02:12;1.70;;;1.60;;
50012;SDS011;35901;48.694;9.476;2022-12-29T09:04:37;1.87;;;1.57;;
50012;SDS011;35901;48.694;9.476;2022-12-29T09:07:03;1.77;;;1.60;;
50012;SDS011;35901;48.694;9.476;2022-12-29T09:09:30;1.70;;;1.40;;
50012;SDS011;35901;48.694;9.476;2022-12-29T09:11:56;3.17;;;1.60;;
50012;SDS011;35901;48.694;9.476;2022-12-29T09:14:21;3.37;;;1.80;;
50012;SDS011;35901;48.694;9.476;2022-12-29T09:16:47;2.40;;;1.63;;
50012;SDS011;35901;48.694;9.476;2022-12-29T09:19:35;1.93;;;1.50;;
50012;SDS011;35901;48.694;9.476;2022-12-29T09:22:00;1.60;;;1.50;;
50012;SDS011;35901;48.694;9.476;2022-12-29T09:24:26;1.70;;;1.57;;
50012;SDS011;35901;48.694;9.476;2022-12-29T09:26:51;3.10;;;1.70;;
50012;SDS011;35901;48.694;9.476;2022-12-29T09:29:17;2.30;;;1.73;;
50012;SDS011;35901;48.694;9.476;2022-12-29T09:31:42;2.00;;;1.43;;
50012;SDS011;35901;48.694;9.476;2022-12-29T09:34:08;1.70;;;1.57;;
50012;SDS011;35901;48.694;9.476;2022-12-29T09:36:34;1.97;;;1.50;;
50012;SDS011;35901;48.694;9.476;2022-12-29T09:38:59;3.30;;;1.40;;
50012;SDS011;35901;48.694;9.476;2022-12-29T09:41:29;1.83;;;1.60;;
50012;SDS011;35901;48.694;9.476;2022-12-29T09:44:12;1.90;;;1.80;;
50012;SDS011;35901;48.694;9.476;2022-12-29T09:46:44;2.33;;;1.57;;
50012;SDS011;35901;48.694;9.476;2022-12-29T09:49:19;2.23;;;1.60;;
50012;SDS011;35901;48.694;9.476;2022-12-29T09:51:59;1.40;;;1.30;;
50012;SDS011;35901;48.694;9.476;2022-12-29T09:54:42;1.70;;;1.60;;
50012;SDS011;35901;48.694;9.476;2022-12-29T09:57:21;1.87;;;1.57;;
50012;SDS011;35901;48.694;9.476;2022-12-29T09:59:50;2.30;;;1.50;;
50012;SDS011;35901;48.694;9.476;2022-12-29T10:02:32;1.87;;;1.60;;
50012;SDS011;35901;48.694;9.476;2022-12-29T10:05:03;3.00;;;1.50;;
50012;SDS011;35901;48.694;9.476;2022-12-29T10:10:38;1.60;;;1.50;;
50012;SDS011;35901;48.694;9.476;2022-12-29T10:13:21;1.70;;;1.60;;
50012;SDS011;35901;48.694;9.476;2022-12-29T10:15:59;2.33;;;1.60;;
50012;SDS011;35901;48.694;9.476;2022-12-29T10:24:14;1.57;;;1.47;;
50012;SDS011;35901;48.694;9.476;2022-12-29T10:26:42;1.77;;;1.50;;
50012;SDS011;35901;48.694;9.476;2022-12-29T10:29:18;1.63;;;1.50;;
50012;SDS011;35901;48.694;9.476;2022-12-29T10:32:03;2.53;;;1.50;;
50012;SDS011;35901;48.694;9.476;2022-12-29T10:34:36;2.30;;;1.70;;
50012;SDS011;35901;48.694;9.476;2022-12-29T10:39:44;1.60;;;1.47;;
50012;SDS011;35901;48.694;9.476;2022-12-29T10:42:21;3.10;;;2.07;;
50012;SDS011;35901;48.694;9.476;2022-12-29T10:44:58;3.23;;;2.27;;
50012;SDS011;35901;48.694;9.476;2022-12-29T10:47:25;4.20;;;3.53;;
50012;SDS011;35901;48.694;9.476;2022-12-29T10:49:54;4.50;;;3.30;;
50012;SDS011;35901;48.694;9.476;2022-12-29T10:52:23;2.80;;;1.90;;
50012;SDS011;35901;48.694;9.476;2022-12-29T10:55:02;3.63;;;2.30;;
50012;SDS011;35901;48.694;9.476;2022-12-29T10:57:35;2.30;;;2.10;;
50012;SDS011;35901;48.694;9.476;2022-12-29T11:00:17;3.33;;;1.90;;
50012;SDS011;35901;48.694;9.476;2022-12-29T11:06:09;3.30;;;1.80;;
50012;SDS011;35901;48.694;9.476;2022-12-29T11:08:15;2.70;;;1.70;;
50012;SDS011;35901;48.694;9.476;2022-12-29T11:10:44;3.10;;;2.20;;
50012;SDS011;35901;48.694;9.476;2022-12-29T11:13:18;2.53;;;1.87;;
50012;SDS011;35901;48.694;9.476;2022-12-29T11:15:49;2.90;;;1.83;;
50012;SDS011;35901;48.694;9.476;2022-12-29T11:21:06;1.70;;;1.60;;
50012;SDS011;35901;48.694;9.476;2022-12-29T11:23:57;2.83;;;1.70;;
50012;SDS011;35901;48.694;9.476;2022-12-29T11:26:24;3.17;;;1.70;;
50012;SDS011;35901;48.694;9.476;2022-12-29T11:31:42;1.47;;;1.37;;
50012;SDS011;35901;48.694;9.476;2022-12-29T11:34:43;2.13;;;1.60;;
50012;SDS011;35901;48.694;9.476;2022-12-29T11:39:41;2.93;;;1.70;;
50012;SDS011;35901;48.694;9.476;2022-12-29T11:42:20;2.80;;;1.80;;
50012;SDS011;35901;48.694;9.476;2022-12-29T11:44:49;1.90;;;1.70;;
50012;SDS011;35901;48.694;9.476;2022-12-29T11:47:29;2.27;;;2.07;;
50012;SDS011;35901;48.694;9.476;2022-12-29T11:49:57;2.90;;;1.90;;
50012;SDS011;35901;48.694;9.476;2022-12-29T11:52:26;2.63;;;1.90;;
50012;SDS011;35901;48.694;9.476;2022-12-29T11:54:54;3.50;;;1.70;;
50012;SDS011;35901;48.694;9.476;2022-12-29T11:57:21;1.70;;;1.60;;
50012;SDS011;35901;48.694;9.476;2022-12-29T11:59:50;3.63;;;2.23;;
50012;SDS011;35901;48.694;9.476;2022-12-29T12:02:30;2.20;;;2.10;;
50012;SDS011;35901;48.694;9.476;2022-12-29T12:08:16;2.47;;;1.70;;
50012;SDS011;35901;48.694;9.476;2022-12-29T12:11:10;2.60;;;2.20;;
50012;SDS011;35901;48.694;9.476;2022-12-29T12:14:00;3.30;;;2.30;;
50012;SDS011;35901;48.694;9.476;2022-12-29T12:16:39;1.90;;;1.80;;
50012;SDS011;35901;48.694;9.476;2022-12-29T12:19:37;5.13;;;3.43;;
50012;SDS011;35901;48.694;9.476;2022-12-29T12:22:15;2.67;;;2.10;;
50012;SDS011;35901;48.694;9.476;2022-12-29T12:24:51;2.70;;;1.60;;
50012;SDS011;35901;48.694;9.476;2022-12-29T12:27:22;1.87;;;1.77;;
50012;SDS011;35901;48.694;9.476;2022-12-29T12:35:32;2.60;;;1.80;;
50012;SDS011;35901;48.694;9.476;2022-12-29T12:41:05;2.03;;;1.80;;
50012;SDS011;35901;48.694;9.476;2022-12-29T12:43:40;3.33;;;2.63;;
50012;SDS011;35901;48.694;9.476;2022-12-29T12:46:27;3.33;;;2.73;;
50012;SDS011;35901;48.694;9.476;2022-12-29T12:58:10;2.83;;;1.83;;
50012;SDS011;35901;48.694;9.476;2022-12-29T13:00:57;1.80;;;1.70;;
50012;SDS011;35901;48.694;9.476;2022-12-29T13:03:45;2.23;;;1.77;;
50012;SDS011;35901;48.694;9.476;2022-12-29T13:09:23;2.53;;;1.80;;
50012;SDS011;35901;48.694;9.476;2022-12-29T13:19:53;2.30;;;2.10;;
50012;SDS011;35901;48.694;9.476;2022-12-29T13:22:44;3.30;;;3.00;;
50012;SDS011;35901;48.694;9.476;2022-12-29T13:25:26;2.83;;;2.60;;
50012;SDS011;35901;48.694;9.476;2022-12-29T13:28:00;2.43;;;2.10;;
50012;SDS011;35901;48.694;9.476;2022-12-29T13:30:40;2.63;;;2.30;;
50012;SDS011;35901;48.694;9.476;2022-12-29T13:33:51;2.50;;;2.30;;
50012;SDS011;35901;48.694;9.476;2022-12-29T13:36:37;2.50;;;2.30;;
50012;SDS011;35901;48.694;9.476;2022-12-29T13:41:57;2.10;;;1.90;;
50012;SDS011;35901;48.694;9.476;2022-12-29T13:44:26;3.53;;;2.23;;
50012;SDS011;35901;48.694;9.476;2022-12-29T13:47:02;2.77;;;2.17;;
50012;SDS011;35901;48.694;9.476;2022-12-29T13:49:35;2.00;;;1.90;;
50012;SDS011;35901;48.694;9.476;2022-12-29T13:52:08;3.77;;;2.40;;
50012;SDS011;35901;48.694;9.476;2022-12-29T13:58:14;2.47;;;2.27;;
50012;SDS011;35901;48.694;9.476;2022-12-29T14:01:09;2.10;;;1.90;;
50012;SDS011;35901;48.694;9.476;2022-12-29T14:03:58;2.70;;;2.50;;
50012;SDS011;35901;48.694;9.476;2022-12-29T14:06:26;4.37;;;3.83;;
50012;SDS011;35901;48.694;9.476;2022-12-29T14:09:04;4.17;;;2.73;;
50012;SDS011;35901;48.694;9.476;2022-12-29T14:11:40;5.77;;;2.83;;
50012;SDS011;35901;48.694;9.476;2022-12-29T14:14:25;2.47;;;2.20;;
50012;SDS011;35901;48.694;9.476;2022-12-29T14:16:54;3.27;;;2.03;;
50012;SDS011;35901;48.694;9.476;2022-12-29T14:19:36;2.97;;;2.60;;
50012;SDS011;35901;48.694;9.476;2022-12-29T14:22:08;2.60;;;2.20;;
50012;SDS011;35901;48.694;9.476;2022-12-29T14:32:35;2.13;;;1.80;;
50012;SDS011;35901;48.694;9.476;2022-12-29T14:34:51;2.20;;;2.00;;
50012;SDS011;35901;48.694;9.476;2022-12-29T14:37:31;2.90;;;2.60;;
50012;SDS011;35901;48.694;9.476;2022-12-29T14:42:27;2.03;;;1.77;;
50012;SDS011;35901;48.694;9.476;2022-12-29T14:47:50;2.37;;;1.90;;
50012;SDS011;35901;48.694;9.476;2022-12-29T14:50:19;2.47;;;2.10;;
50012;SDS011;35901;48.694;9.476;2022-12-29T14:53:39;3.37;;;2.00;;
50012;SDS011;35901;48.694;9.476;2022-12-29T14:56:19;2.70;;;1.93;;
50012;SDS011;35901;48.694;9.476;2022-12-29T14:58:51;2.37;;;2.17;;
50012;SDS011;35901;48.694;9.476;2022-12-29T15:01:20;2.53;;;2.27;;
50012;SDS011;35901;48.694;9.476;2022-12-29T15:03:48;3.37;;;2.20;;
50012;SDS011;35901;48.694;9.476;2022-12-29T15:06:17;3.47;;;2.90;;
50012;SDS011;35901;48.694;9.476;2022-12-29T15:11:20;3.20;;;2.50;;
50012;SDS011;35901;48.694;9.476;2022-12-29T15:13:47;2.53;;;2.33;;
50012;SDS011;35901;48.694;9.476;2022-12-29T15:16:30;4.07;;;2.80;;
50012;SDS011;35901;48.694;9.476;2022-12-29T15:18:57;3.60;;;2.40;;
50012;SDS011;35901;48.694;9.476;2022-12-29T15:21:25;3.07;;;2.43;;
50012;SDS011;35901;48.694;9.476;2022-12-29T15:24:05;3.93;;;2.40;;
50012;SDS011;35901;48.694;9.476;2022-12-29T15:26:40;3.73;;;2.60;;
50012;SDS011;35901;48.694;9.476;2022-12-29T15:31:58;4.10;;;2.90;;
50012;SDS011;35901;48.694;9.476;2022-12-29T15:34:28;4.27;;;2.83;;
50012;SDS011;35901;48.694;9.476;2022-12-29T15:36:55;2.63;;;2.43;;
50012;SDS011;35901;48.694;9.476;2022-12-29T15:39:28;3.77;;;3.10;;
50012;SDS011;35901;48.694;9.476;2022-12-29T15:41:55;4.33;;;2.90;;
50012;SDS011;35901;48.694;9.476;2022-12-29T15:44:42;3.40;;;3.00;;
50012;SDS011;35901;48.694;9.476;2022-12-29T15:47:13;3.47;;;2.40;;
50012;SDS011;35901;48.694;9.476;2022-12-29T15:49:49;4.63;;;3.50;;
50012;SDS011;35901;48.694;9.476;2022-12-29T15:52:18;4.10;;;2.83;;
50012;SDS011;35901;48.694;9.476;2022-12-29T15:54:45;3.77;;;3.00;;
50012;SDS011;35901;48.694;9.476;2022-12-29T15:57:25;3.40;;;2.60;;
50012;SDS011;35901;48.694;9.476;2022-12-29T15:59:52;3.07;;;2.40;;
50012;SDS011;35901;48.694;9.476;2022-12-29T16:02:19;2.63;;;2.30;;
50012;SDS011;35901;48.694;9.476;2022-12-29T16:04:47;3.83;;;2.23;;
50012;SDS011;35901;48.694;9.476;2022-12-29T16:07:31;3.40;;;2.30;;
50012;SDS011;35901;48.694;9.476;2022-12-29T16:09:58;2.43;;;2.23;;
50012;SDS011;35901;48.694;9.476;2022-12-29T16:12:32;2.67;;;2.47;;
50012;SDS011;35901;48.694;9.476;2022-12-29T16:15:02;4.00;;;3.30;;
50012;SDS011;35901;48.694;9.476;2022-12-29T16:17:33;5.27;;;3.60;;
50012;SDS011;35901;48.694;9.476;2022-12-29T16:20:04;2.83;;;2.40;;
50012;SDS011;35901;48.694;9.476;2022-12-29T16:22:40;5.23;;;2.63;;
50012;SDS011;35901;48.694;9.476;2022-12-29T16:27:37;3.93;;;2.77;;
50012;SDS011;35901;48.694;9.476;2022-12-29T16:30:06;3.00;;;2.70;;
50012;SDS011;35901;48.694;9.476;2022-12-29T16:32:46;4.60;;;3.30;;
50012;SDS011;35901;48.694;9.476;2022-12-29T16:35:19;3.40;;;3.10;;
50012;SDS011;35901;48.694;9.476;2022-12-29T16:37:47;3.80;;;3.00;;
50012;SDS011;35901;48.694;9.476;2022-12-29T16:40:27;4.07;;;3.30;;
50012;SDS011;35901;48.694;9.476;2022-12-29T16:42:56;4.80;;;3.30;;
50012;SDS011;35901;48.694;9.476;2022-12-29T16:48:21;4.17;;;3.47;;
50012;SDS011;35901;48.694;9.476;2022-12-29T16:51:14;5.07;;;3.47;;
50012;SDS011;35901;48.694;9.476;2022-12-29T16:53:42;4.43;;;3.47;;
50012;SDS011;35901;48.694;9.476;2022-12-29T16:56:15;6.10;;;3.40;;
50012;SDS011;35901;48.694;9.476;2022-12-29T16:58:50;4.63;;;3.87;;
50012;SDS011;35901;48.694;9.476;2022-12-29T17:01:23;5.17;;;4.30;;
50012;SDS011;35901;48.694;9.476;2022-12-29T17:03:50;7.10;;;5.93;;
50012;SDS011;35901;48.694;9.476;2022-12-29T17:06:18;5.80;;;5.23;;
50012;SDS011;35901;48.694;9.476;2022-12-29T17:08:46;5.43;;;4.93;;
50012;SDS011;35901;48.694;9.476;2022-12-29T17:11:28;5.63;;;4.70;;
50012;SDS011;35901;48.694;9.476;2022-12-29T17:17:14;4.93;;;4.53;;
50012;SDS011;35901;48.694;9.476;2022-12-29T17:19:40;5.07;;;4.17;;
50012;SDS011;35901;48.694;9.476;2022-12-29T17:22:19;5.80;;;4.53;;
50012;SDS011;35901;48.694;9.476;2022-12-29T17:24:50;5.17;;;3.87;;